Камери на живо
METAR for:LBPD (Plovdiv, --, BU)
Text:LBPD 181600Z AUTO 11005KT 9999 NCD 25/13 Q1017 NOSIG
Temperature: 25.0°C ( 77°F)
Dewpoint: 13.0°C ( 55°F) [RH = 47%]
Pressure (altimeter):30.03 inches Hg (1017.0 mb)
Winds:from the ESE (110 degrees) at 6 MPH (5 knots; 2.6 m/s)
Visibility:6 or more sm (10+ km)
Ceiling:at least 12,000 feet AGL
Clouds:sky clear below 12,000 feet AGL

TAF for:LBPD (Plovdiv, --, BU) issued at 1100 UTC 18 Sep 2020
Text:TAF LBPD 181100Z 1812/1912 10015KT 9999 SCT040 SCT060
Forecast period:1200 UTC 18 September 2020 to 1200 UTC 19 September 2020
Forecast type:FROM: standard forecast or significant change
Winds:from the E (100 degrees) at 17 MPH (15 knots; 7.7 m/s)
Visibility:6 or more sm (10+ km)
Ceiling:at least 12,000 feet AGL
Clouds: scattered clouds at 4000 feet AGL, scattered clouds at 6000 feet AGL